createdAt,value
2023-02-14T00:00:07.350Z,32.85
2023-02-14T00:02:35.556Z,38.75
2023-02-14T00:05:02.333Z,33.08
2023-02-14T00:07:29.037Z,36.40
2023-02-14T00:09:55.802Z,43.00
2023-02-14T00:12:22.472Z,43.25
2023-02-14T00:14:49.134Z,48.53
2023-02-14T00:17:15.892Z,66.53
2023-02-14T00:19:43.972Z,64.78
2023-02-14T00:22:10.716Z,64.63
2023-02-14T00:24:37.616Z,61.80
2023-02-14T00:27:04.317Z,63.85
2023-02-14T00:29:32.481Z,62.58
2023-02-14T00:31:59.669Z,70.38
2023-02-14T00:34:26.942Z,67.40
2023-02-14T00:36:55.101Z,76.15
2023-02-14T00:39:21.812Z,72.15
2023-02-14T00:41:48.555Z,70.13
2023-02-14T00:44:15.273Z,71.65
2023-02-14T00:46:42.281Z,63.67
2023-02-14T00:49:09.276Z,70.32
2023-02-14T00:51:36.017Z,70.20
2023-02-14T00:54:04.615Z,61.45
2023-02-14T00:56:32.027Z,69.97
2023-02-14T00:58:58.712Z,72.90
2023-02-14T01:01:25.609Z,65.65
2023-02-14T01:03:52.379Z,85.07
2023-02-14T01:06:19.139Z,83.00
2023-02-14T01:08:45.912Z,75.18
2023-02-14T01:11:16.076Z,80.13
2023-02-14T01:13:44.088Z,74.85
2023-02-14T01:16:12.894Z,69.22
2023-02-14T01:18:39.975Z,70.45
2023-02-14T01:21:14.844Z,70.93
2023-02-14T01:23:41.965Z,74.87
2023-02-14T01:26:09.525Z,78.45
2023-02-14T01:28:38.183Z,77.00
2023-02-14T01:31:10.059Z,71.90
2023-02-14T01:33:37.151Z,70.93
2023-02-14T01:36:04.277Z,68.30
2023-02-14T01:38:31.257Z,67.47
2023-02-14T01:40:58.643Z,70.15
2023-02-14T01:43:26.051Z,66.75
2023-02-14T01:45:54.325Z,74.07
2023-02-14T01:48:22.553Z,60.80
2023-02-14T01:50:52.254Z,61.35
2023-02-14T01:53:24.650Z,58.40
2023-02-14T01:55:55.971Z,70.35
2023-02-14T01:58:26.820Z,60.47
2023-02-14T02:00:54.931Z,63.07
2023-02-14T02:03:22.812Z,66.03
2023-02-14T02:05:54.826Z,76.28
2023-02-14T02:08:21.964Z,67.82
2023-02-14T02:10:48.682Z,63.35
2023-02-14T02:13:17.678Z,66.67
2023-02-14T02:15:51.629Z,61.17
2023-02-14T02:18:26.916Z,63.38
2023-02-14T02:21:23.335Z,58.85
2023-02-14T02:24:14.074Z,69.50
2023-02-14T02:27:09.452Z,67.23
2023-02-14T02:30:18.942Z,73.35
2023-02-14T02:33:24.951Z,91.47
2023-02-14T02:36:12.226Z,74.22
2023-02-14T02:38:51.299Z,76.53
2023-02-14T02:41:24.987Z,79.27
2023-02-14T02:43:55.452Z,64.32
2023-02-14T02:46:25.867Z,74.78
2023-02-14T02:48:59.677Z,64.35
2023-02-14T02:51:35.398Z,70.20
2023-02-14T02:54:08.620Z,78.53
2023-02-14T02:56:41.664Z,74.50
2023-02-14T02:59:12.682Z,74.95
2023-02-14T03:01:41.289Z,84.90
2023-02-14T03:04:11.544Z,81.82
2023-02-14T03:06:39.666Z,92.27
2023-02-14T03:09:33.152Z,76.07
2023-02-14T03:12:19.269Z,64.07
2023-02-14T03:14:50.149Z,67.20
2023-02-14T03:17:24.930Z,68.82
2023-02-14T03:20:00.469Z,73.20
2023-02-14T03:22:41.644Z,72.78
2023-02-14T03:25:22.246Z,67.35
2023-02-14T03:27:54.917Z,62.70
2023-02-14T03:30:31.079Z,63.67
2023-02-14T03:33:03.061Z,69.70
2023-02-14T03:35:35.530Z,66.15
2023-02-14T03:38:07.460Z,76.70
2023-02-14T03:40:38.946Z,86.60
2023-02-14T03:43:10.025Z,74.80
2023-02-14T03:45:41.103Z,91.73
2023-02-14T03:48:11.214Z,80.80
2023-02-14T03:50:40.391Z,87.65
2023-02-14T03:53:11.565Z,80.28
2023-02-14T03:55:44.001Z,81.93
2023-02-14T03:58:16.640Z,70.13
2023-02-14T04:00:44.888Z,77.22
2023-02-14T04:03:14.964Z,78.65
2023-02-14T04:05:42.399Z,81.60
2023-02-14T04:08:11.434Z,71.75
2023-02-14T04:10:38.534Z,62.47
2023-02-14T04:13:05.451Z,72.53
2023-02-14T04:15:32.207Z,75.00
2023-02-14T04:17:58.962Z,69.32
2023-02-14T04:20:26.442Z,60.10
2023-02-14T04:22:53.186Z,51.63
2023-02-14T04:25:22.382Z,51.90
2023-02-14T04:27:49.343Z,50.53
2023-02-14T04:30:16.609Z,44.13
2023-02-14T04:32:44.349Z,46.90
2023-02-14T04:35:11.408Z,48.30
2023-02-14T04:37:38.284Z,57.00
2023-02-14T04:40:06.360Z,44.00
2023-02-14T04:42:34.614Z,47.92
2023-02-14T04:45:04.019Z,53.78
2023-02-14T04:47:30.931Z,58.33
2023-02-14T04:49:57.947Z,73.88
2023-02-14T04:52:24.773Z,72.72
2023-02-14T04:54:51.470Z,74.45
2023-02-14T04:57:18.197Z,87.30
2023-02-14T04:59:46.231Z,78.37
2023-02-14T05:02:13.017Z,82.95
2023-02-14T05:04:39.721Z,84.95
2023-02-14T05:07:06.457Z,80.25
2023-02-14T05:09:33.164Z,91.05
2023-02-14T05:11:59.901Z,90.93
2023-02-14T05:14:26.781Z,80.72
2023-02-14T05:16:54.902Z,99.88
2023-02-14T05:19:21.642Z,85.90
2023-02-14T05:21:48.368Z,81.35
2023-02-14T05:24:15.642Z,84.80
2023-02-14T05:26:42.484Z,86.72
2023-02-14T05:29:09.299Z,80.85
2023-02-14T05:31:36.252Z,75.53
2023-02-14T05:34:04.445Z,83.60
2023-02-14T05:36:31.262Z,76.70
2023-02-14T05:38:58.018Z,70.07
2023-02-14T05:41:24.780Z,65.85
2023-02-14T05:43:51.558Z,70.05
2023-02-14T05:46:18.249Z,60.20
2023-02-14T05:48:44.986Z,67.30
2023-02-14T05:51:13.301Z,68.57
2023-02-14T05:53:40.122Z,64.82
2023-02-14T05:56:07.237Z,70.95
2023-02-14T05:58:34.176Z,67.50
2023-02-14T06:01:01.600Z,69.13
2023-02-14T06:03:28.556Z,69.90
2023-02-14T06:05:55.316Z,67.05
2023-02-14T06:08:24.767Z,79.78
2023-02-14T06:10:51.445Z,69.68
2023-02-14T06:13:18.238Z,68.50
2023-02-14T06:15:44.948Z,67.68
2023-02-14T06:18:11.826Z,80.13
2023-02-14T06:20:38.549Z,74.93
2023-02-14T06:23:05.319Z,62.90
2023-02-14T06:25:33.596Z,54.80
2023-02-14T06:28:00.401Z,64.53
2023-02-14T06:30:27.937Z,58.28
2023-02-14T06:32:54.837Z,57.72
2023-02-14T06:35:21.774Z,59.70
2023-02-14T06:37:48.665Z,62.27
2023-02-14T06:40:15.404Z,54.13
2023-02-14T06:42:43.528Z,56.53
2023-02-14T06:45:10.593Z,55.15
2023-02-14T06:47:37.880Z,59.78
2023-02-14T06:50:05.889Z,48.93
2023-02-14T06:52:32.712Z,45.85
2023-02-14T06:54:59.457Z,51.03
2023-02-14T06:57:26.317Z,49.85
2023-02-14T06:59:54.581Z,45.00
2023-02-14T07:02:24.629Z,44.07
2023-02-14T07:04:51.755Z,41.83
2023-02-14T07:07:18.524Z,48.92
2023-02-14T07:09:45.176Z,43.58
2023-02-14T07:12:12.082Z,46.78
2023-02-14T07:14:38.838Z,46.73
2023-02-14T07:17:06.864Z,57.58
2023-02-14T07:19:33.631Z,55.15
2023-02-14T07:22:00.646Z,45.90
2023-02-14T07:24:27.356Z,50.90
2023-02-14T07:26:54.108Z,50.33
2023-02-14T07:29:20.949Z,55.25
2023-02-14T07:31:47.819Z,49.15
2023-02-14T07:34:15.915Z,51.17
2023-02-14T07:36:42.590Z,55.42
2023-02-14T07:39:09.329Z,41.63
2023-02-14T07:41:36.344Z,46.97
2023-02-14T07:44:03.055Z,58.35
2023-02-14T07:46:29.823Z,44.20
2023-02-14T07:48:56.590Z,50.78
2023-02-14T07:51:24.659Z,43.77
2023-02-14T07:53:51.323Z,44.40
2023-02-14T07:56:18.021Z,50.30
2023-02-14T07:58:44.723Z,44.63
2023-02-14T08:01:11.484Z,40.65
2023-02-14T08:03:38.322Z,45.43
2023-02-14T08:06:05.403Z,45.78
2023-02-14T08:08:33.516Z,35.78
2023-02-14T08:11:00.719Z,49.20
2023-02-14T08:13:27.791Z,43.67
2023-02-14T08:15:54.632Z,37.33
2023-02-14T08:18:22.349Z,39.58
2023-02-14T08:20:49.258Z,43.38
2023-02-14T08:23:16.636Z,40.70
2023-02-14T08:25:44.953Z,35.45
2023-02-14T08:28:11.942Z,37.67
2023-02-14T08:30:38.693Z,35.00
2023-02-14T08:33:06.076Z,36.50
2023-02-14T08:35:33.153Z,45.45
2023-02-14T08:37:59.878Z,39.67
2023-02-14T08:40:26.857Z,39.67
2023-02-14T08:42:54.990Z,40.17
2023-02-14T08:45:21.802Z,36.92
2023-02-14T08:47:48.638Z,44.08
2023-02-14T08:50:17.170Z,40.08
2023-02-14T08:52:43.927Z,40.37
2023-02-14T08:55:11.590Z,43.72
2023-02-14T08:57:38.658Z,40.65
2023-02-14T09:00:08.804Z,43.50
2023-02-14T09:02:35.941Z,39.65
2023-02-14T09:05:02.748Z,37.90
2023-02-14T09:07:29.516Z,35.67
2023-02-14T09:09:56.903Z,35.35
2023-02-14T09:12:23.930Z,33.75
2023-02-14T09:14:50.713Z,36.50
2023-02-14T09:17:18.973Z,40.37
2023-02-14T09:19:45.658Z,40.53
2023-02-14T09:22:12.459Z,42.05
2023-02-14T09:24:40.335Z,44.05
2023-02-14T09:27:07.897Z,39.15
2023-02-14T09:29:34.669Z,43.77
2023-02-14T09:32:02.283Z,44.45
2023-02-14T09:34:32.664Z,44.85
2023-02-14T09:36:59.375Z,44.03
2023-02-14T09:39:26.129Z,42.33
2023-02-14T09:42:16.520Z,42.53
2023-02-14T09:44:47.205Z,45.17
2023-02-14T09:47:22.103Z,44.50
2023-02-14T09:49:52.022Z,42.95
2023-02-14T09:52:22.255Z,39.15
2023-02-14T09:54:54.578Z,40.43
2023-02-14T09:57:25.133Z,41.13
2023-02-14T09:59:57.211Z,35.88
2023-02-14T10:02:44.924Z,38.78
2023-02-14T10:05:16.992Z,41.53
2023-02-14T10:07:55.841Z,35.73
2023-02-14T10:10:27.577Z,33.72
2023-02-14T10:12:57.261Z,32.55
2023-02-14T10:15:27.199Z,34.63
2023-02-14T10:17:58.686Z,31.45
2023-02-14T10:20:32.139Z,31.73
2023-02-14T10:23:06.548Z,31.95
2023-02-14T10:25:42.159Z,32.63
2023-02-14T10:28:14.226Z,28.35
2023-02-14T10:30:49.291Z,34.22
2023-02-14T10:33:18.149Z,39.13
2023-02-14T10:35:49.181Z,37.47
2023-02-14T10:38:30.541Z,35.85
2023-02-14T10:41:10.623Z,33.28
2023-02-14T10:43:49.191Z,33.90
2023-02-14T10:46:24.746Z,32.20
2023-02-14T10:49:00.232Z,29.20
2023-02-14T10:51:35.446Z,30.30
2023-02-14T10:54:17.126Z,29.13
2023-02-14T10:56:49.107Z,33.13
2023-02-14T10:59:21.907Z,30.27
2023-02-14T11:01:50.091Z,29.88
2023-02-14T11:04:17.784Z,31.00
2023-02-14T11:06:45.898Z,35.60
2023-02-14T11:09:12.606Z,28.98
2023-02-14T11:11:43.380Z,35.53
2023-02-14T11:14:23.515Z,26.10
2023-02-14T11:16:50.772Z,32.05
2023-02-14T11:19:24.114Z,24.55
2023-02-14T11:21:53.694Z,26.75
2023-02-14T11:24:27.527Z,38.67
2023-02-14T11:26:56.392Z,29.13
2023-02-14T11:29:28.208Z,26.95
2023-02-14T11:31:55.846Z,30.50
2023-02-14T11:34:33.386Z,30.52
2023-02-14T11:37:01.756Z,28.07
2023-02-14T11:39:30.991Z,31.90
2023-02-14T11:41:59.934Z,31.20
2023-02-14T11:44:29.269Z,26.73
2023-02-14T11:46:57.625Z,24.20
2023-02-14T11:49:27.939Z,27.67
2023-02-14T11:51:55.779Z,32.85
2023-02-14T11:54:34.798Z,29.98
2023-02-14T11:57:04.989Z,26.92
2023-02-14T11:59:35.654Z,26.75
2023-02-14T12:02:13.998Z,28.77
2023-02-14T12:04:46.797Z,29.52
2023-02-14T12:07:20.389Z,28.55
2023-02-14T12:10:04.539Z,32.08
2023-02-14T12:12:31.323Z,30.92
2023-02-14T12:15:21.157Z,31.53
2023-02-14T12:17:51.712Z,30.38
2023-02-14T12:20:26.152Z,33.80
2023-02-14T12:22:58.067Z,39.97
2023-02-14T12:25:32.244Z,33.60
2023-02-14T12:28:02.203Z,33.73
2023-02-14T12:30:32.548Z,29.50
2023-02-14T12:33:00.138Z,35.60
2023-02-14T12:35:43.143Z,31.98
2023-02-14T12:38:18.822Z,33.15
2023-02-14T12:41:01.852Z,32.93
2023-02-14T12:43:46.061Z,29.52
2023-02-14T12:46:37.023Z,27.45
2023-02-14T12:49:20.361Z,29.02
2023-02-14T12:51:52.343Z,26.20
2023-02-14T12:54:36.662Z,28.37
2023-02-14T12:57:13.974Z,23.35
2023-02-14T12:59:51.048Z,24.50
2023-02-14T13:02:50.838Z,26.80
2023-02-14T13:05:22.667Z,24.25
2023-02-14T13:08:03.079Z,22.20
2023-02-14T13:10:42.219Z,23.05
2023-02-14T13:13:22.610Z,21.33
2023-02-14T13:15:57.291Z,22.00
2023-02-14T13:18:33.762Z,22.75
2023-02-14T13:21:04.164Z,22.30
2023-02-14T13:23:36.066Z,26.05
2023-02-14T13:26:10.150Z,23.48
2023-02-14T13:28:40.768Z,24.02
2023-02-14T13:31:07.691Z,22.58
2023-02-14T13:33:37.978Z,25.83
2023-02-14T13:36:10.840Z,20.67
2023-02-14T13:38:43.359Z,19.88
2023-02-14T13:41:11.384Z,20.60
2023-02-14T13:43:54.479Z,20.95
2023-02-14T13:46:37.478Z,20.63
2023-02-14T13:49:25.624Z,18.98
2023-02-14T13:51:54.622Z,22.45
2023-02-14T13:54:28.172Z,21.77
2023-02-14T13:56:54.970Z,21.92
2023-02-14T13:59:29.600Z,21.10
2023-02-14T14:02:40.617Z,25.35
2023-02-14T14:05:42.987Z,22.77
2023-02-14T14:08:37.540Z,17.25
2023-02-14T14:11:05.930Z,18.88
2023-02-14T14:13:55.271Z,17.80
2023-02-14T14:16:36.118Z,18.67
2023-02-14T14:19:04.830Z,21.45
2023-02-14T14:21:33.427Z,19.33
2023-02-14T14:24:12.896Z,18.42
2023-02-14T14:26:43.016Z,17.27
2023-02-14T14:29:12.473Z,20.52
2023-02-14T14:31:42.454Z,18.20
2023-02-14T14:34:16.969Z,19.70
2023-02-14T14:36:43.732Z,21.77
2023-02-14T14:39:10.863Z,23.57
2023-02-14T14:41:39.557Z,19.23
2023-02-14T14:44:07.261Z,21.70
2023-02-14T14:46:34.135Z,17.77
2023-02-14T14:49:02.887Z,20.00
2023-02-14T14:51:33.752Z,19.00
2023-02-14T14:54:02.566Z,17.92
2023-02-14T14:56:32.451Z,22.77
2023-02-14T14:59:16.475Z,24.70
2023-02-14T15:01:44.608Z,21.08
2023-02-14T15:04:17.499Z,25.50
2023-02-14T15:06:44.516Z,21.95
2023-02-14T15:09:13.093Z,23.42
2023-02-14T15:11:41.154Z,21.17
2023-02-14T15:14:11.659Z,22.70
2023-02-14T15:16:44.788Z,22.17
2023-02-14T15:19:18.360Z,21.80
2023-02-14T15:21:45.906Z,22.88
2023-02-14T15:24:15.879Z,21.80
2023-02-14T15:26:44.742Z,25.60
2023-02-14T15:29:20.816Z,24.40
2023-02-14T15:31:47.918Z,25.55
2023-02-14T15:34:15.098Z,24.65
2023-02-14T15:36:43.787Z,28.50
2023-02-14T15:39:15.819Z,26.35
2023-02-14T15:41:43.741Z,24.33
2023-02-14T15:44:19.323Z,23.08
2023-02-14T15:46:46.738Z,25.40
2023-02-14T15:49:19.637Z,24.58
2023-02-14T15:51:48.996Z,26.88
2023-02-14T15:54:22.081Z,24.00
2023-02-14T15:56:51.497Z,25.85
2023-02-14T15:59:20.319Z,24.50
2023-02-14T16:01:52.620Z,23.85
2023-02-14T16:04:24.187Z,26.80
2023-02-14T16:07:04.928Z,26.17
2023-02-14T16:09:32.894Z,26.90
2023-02-14T16:11:59.642Z,23.95
2023-02-14T16:14:31.857Z,29.58
2023-02-14T16:17:00.690Z,25.67
2023-02-14T16:19:38.972Z,25.13
2023-02-14T16:22:08.395Z,25.20
2023-02-14T16:24:35.135Z,31.25
2023-02-14T16:27:01.881Z,25.08
2023-02-14T16:29:28.646Z,28.42
2023-02-14T16:32:14.547Z,25.37
2023-02-14T16:34:42.366Z,26.67
2023-02-14T16:37:21.084Z,31.17
2023-02-14T16:39:48.757Z,24.75
2023-02-14T16:42:16.671Z,26.60
2023-02-14T16:44:44.066Z,25.30
2023-02-14T16:47:12.253Z,24.52
2023-02-14T16:49:39.304Z,22.98
2023-02-14T16:52:06.328Z,25.33
2023-02-14T16:54:34.400Z,26.15
2023-02-14T16:57:03.201Z,26.27
2023-02-14T16:59:30.250Z,28.63
2023-02-14T17:01:57.966Z,28.42
2023-02-14T17:04:24.750Z,29.75
2023-02-14T17:06:54.053Z,27.98
2023-02-14T17:09:25.597Z,32.20
2023-02-14T17:11:56.759Z,39.78
2023-02-14T17:14:26.939Z,30.98
2023-02-14T17:16:55.155Z,29.85
2023-02-14T17:19:21.920Z,35.83
2023-02-14T17:21:48.777Z,41.23
2023-02-14T17:24:15.526Z,41.55
2023-02-14T17:26:42.338Z,35.85
2023-02-14T17:29:10.553Z,32.28
2023-02-14T17:31:37.371Z,29.55
2023-02-14T17:34:04.247Z,33.07
2023-02-14T17:36:31.042Z,29.92
2023-02-14T17:38:58.042Z,30.88
2023-02-14T17:41:26.318Z,33.25
2023-02-14T17:43:53.665Z,37.20
2023-02-14T17:46:22.122Z,40.07
2023-02-14T17:48:49.211Z,40.05
2023-02-14T17:51:17.914Z,32.75
2023-02-14T17:53:44.611Z,33.22
2023-02-14T17:56:13.015Z,34.88
2023-02-14T17:58:40.215Z,33.27
2023-02-14T18:01:09.086Z,32.10
2023-02-14T18:03:37.848Z,32.60
2023-02-14T18:06:05.387Z,30.90
2023-02-14T18:08:33.694Z,28.08
2023-02-14T18:11:03.875Z,30.10
2023-02-14T18:13:30.632Z,48.00
2023-02-14T18:15:57.381Z,38.50
2023-02-14T18:18:25.063Z,34.10
2023-02-14T18:20:57.833Z,32.38
2023-02-14T18:23:25.210Z,37.63
2023-02-14T18:25:55.502Z,56.88
2023-02-14T18:28:23.291Z,159.05
2023-02-14T18:30:50.186Z,68.72
2023-02-14T18:33:16.956Z,38.85
2023-02-14T18:35:43.971Z,44.87
2023-02-14T18:38:12.933Z,38.92
2023-02-14T18:40:40.001Z,33.38
2023-02-14T18:43:07.268Z,30.55
2023-02-14T18:45:35.585Z,26.67
2023-02-14T18:48:02.354Z,26.47
2023-02-14T18:50:29.066Z,27.65
2023-02-14T18:52:55.796Z,29.23
2023-02-14T18:55:23.860Z,31.05
2023-02-14T18:57:50.647Z,26.20
2023-02-14T19:00:17.769Z,29.73
2023-02-14T19:02:44.539Z,27.23
2023-02-14T19:05:11.589Z,25.73
2023-02-14T19:07:38.334Z,25.48
2023-02-14T19:10:06.581Z,27.05
2023-02-14T19:12:34.996Z,22.43
2023-02-14T19:15:02.203Z,22.65
2023-02-14T19:17:29.070Z,21.15
2023-02-14T19:19:56.082Z,21.60
2023-02-14T19:22:22.866Z,23.45
2023-02-14T19:24:52.682Z,26.03
2023-02-14T19:27:19.921Z,21.73
2023-02-14T19:29:48.257Z,21.15
2023-02-14T19:32:15.279Z,24.33
2023-02-14T19:34:42.031Z,23.65
2023-02-14T19:37:08.833Z,21.97
2023-02-14T19:39:35.604Z,24.17
2023-02-14T19:42:02.525Z,23.08
2023-02-14T19:44:29.212Z,22.27
2023-02-14T19:46:57.344Z,23.33
2023-02-14T19:49:24.038Z,25.97
2023-02-14T19:51:50.797Z,29.00
2023-02-14T19:54:17.714Z,25.55
2023-02-14T19:56:47.442Z,25.80
2023-02-14T19:59:15.146Z,21.80
2023-02-14T20:01:44.210Z,24.27
2023-02-14T20:04:14.866Z,23.27
2023-02-14T20:06:42.509Z,24.83
2023-02-14T20:09:09.777Z,27.60
2023-02-14T20:11:38.554Z,30.80
2023-02-14T20:14:06.717Z,31.27
2023-02-14T20:16:34.709Z,30.40
2023-02-14T20:19:02.714Z,26.33
2023-02-14T20:21:30.925Z,28.33
2023-02-14T20:23:58.524Z,28.85
2023-02-14T20:26:25.270Z,24.93
2023-02-14T20:28:51.960Z,27.67
2023-02-14T20:31:18.840Z,27.42
2023-02-14T20:33:46.118Z,29.92
2023-02-14T20:36:15.040Z,27.75
2023-02-14T20:38:43.110Z,30.10
2023-02-14T20:41:12.500Z,35.10
2023-02-14T20:43:39.877Z,33.85
2023-02-14T20:46:07.581Z,29.90
2023-02-14T20:48:35.201Z,31.05
2023-02-14T20:51:09.508Z,32.40
2023-02-14T20:53:36.259Z,32.45
2023-02-14T20:56:05.120Z,33.72
2023-02-14T20:58:32.248Z,35.25
2023-02-14T21:01:05.811Z,32.50
2023-02-14T21:03:32.737Z,34.37
2023-02-14T21:05:59.464Z,32.60
2023-02-14T21:08:26.164Z,34.97
2023-02-14T21:10:52.981Z,32.85
2023-02-14T21:13:21.441Z,43.70
2023-02-14T21:15:48.364Z,40.57
2023-02-14T21:18:15.085Z,41.33
2023-02-14T21:20:41.817Z,38.92
2023-02-14T21:23:08.536Z,40.00
2023-02-14T21:25:35.272Z,40.28
2023-02-14T21:28:02.029Z,41.63
2023-02-14T21:30:30.180Z,36.83
2023-02-14T21:32:56.902Z,31.77
2023-02-14T21:35:23.778Z,33.80
2023-02-14T21:37:50.674Z,37.90
2023-02-14T21:40:19.061Z,34.77
2023-02-14T21:42:45.787Z,43.53
2023-02-14T21:45:13.545Z,44.17
2023-02-14T21:47:41.627Z,37.55
2023-02-14T21:50:09.977Z,40.58
2023-02-14T21:52:36.780Z,45.20
2023-02-14T21:55:03.776Z,46.90
2023-02-14T21:57:30.707Z,44.08
2023-02-14T21:59:57.510Z,48.67
2023-02-14T22:02:24.344Z,46.28
2023-02-14T22:04:52.407Z,44.97
2023-02-14T22:07:19.107Z,44.70
2023-02-14T22:09:45.830Z,50.53
2023-02-14T22:12:12.494Z,47.15
2023-02-14T22:14:39.177Z,44.97
2023-02-14T22:17:05.871Z,42.80
2023-02-14T22:19:32.543Z,39.60
2023-02-14T22:22:00.656Z,36.85
2023-02-14T22:24:27.542Z,40.70
2023-02-14T22:26:54.256Z,36.95
2023-02-14T22:29:20.999Z,35.33
2023-02-14T22:31:47.759Z,32.45
2023-02-14T22:34:15.913Z,39.55
2023-02-14T22:36:42.651Z,41.75
2023-02-14T22:39:13.461Z,39.40
2023-02-14T22:41:40.284Z,42.13
2023-02-14T22:44:07.147Z,43.33
2023-02-14T22:46:34.697Z,33.47
2023-02-14T22:49:01.378Z,34.15
2023-02-14T22:51:30.843Z,34.55
2023-02-14T22:53:58.953Z,39.60
2023-02-14T22:56:28.554Z,36.83
2023-02-14T22:58:56.531Z,35.00
2023-02-14T23:01:24.391Z,32.50
2023-02-14T23:03:53.787Z,34.03
2023-02-14T23:06:20.662Z,32.00
2023-02-14T23:08:48.036Z,35.35
2023-02-14T23:11:16.421Z,38.50
2023-02-14T23:13:44.601Z,40.65
2023-02-14T23:16:11.351Z,34.17
2023-02-14T23:18:38.046Z,34.13
2023-02-14T23:21:12.843Z,38.75
2023-02-14T23:23:39.562Z,31.73
2023-02-14T23:26:06.218Z,38.17
2023-02-14T23:28:32.947Z,31.48
2023-02-14T23:31:02.169Z,38.03
2023-02-14T23:33:28.877Z,39.85
2023-02-14T23:35:55.597Z,44.00
2023-02-14T23:38:22.348Z,43.15
2023-02-14T23:40:49.078Z,40.53
2023-02-14T23:43:15.736Z,34.27
2023-02-14T23:45:42.530Z,33.17
2023-02-14T23:48:10.628Z,38.78
2023-02-14T23:50:37.311Z,37.92
2023-02-14T23:53:04.084Z,41.42
2023-02-14T23:55:31.265Z,44.13
2023-02-14T23:57:57.987Z,42.78
